createdAt,value
2016-04-22T00:00:40.663Z,59.9
2016-04-22T00:01:40.635Z,60.09
2016-04-22T00:02:40.638Z,60.28
2016-04-22T00:03:40.629Z,59.71
2016-04-22T00:04:40.605Z,59.42
2016-04-22T00:05:40.592Z,60.18
2016-04-22T00:06:40.579Z,59.99
2016-04-22T00:07:40.567Z,60.18
2016-04-22T00:08:40.553Z,59.9
2016-04-22T00:09:40.525Z,59.05
2016-04-22T00:10:40.731Z,59.52
2016-04-22T00:11:40.499Z,59.99
2016-04-22T00:12:40.486Z,59.42
2016-04-22T00:13:40.473Z,60.18
2016-04-22T00:14:40.461Z,60.18
2016-04-22T00:15:40.447Z,60.28
2016-04-22T00:16:40.435Z,59.99
2016-04-22T00:17:40.421Z,59.33
2016-04-22T00:18:40.394Z,59.14
2016-04-22T00:19:40.396Z,60.18
2016-04-22T00:20:40.367Z,60.57
2016-04-22T00:21:40.354Z,60.47
2016-04-22T00:22:40.357Z,60.18
2016-04-22T00:23:40.329Z,59.99
2016-04-22T00:24:40.316Z,59.71
2016-04-22T00:25:40.302Z,60.57
2016-04-22T00:26:40.290Z,60.57
2016-04-22T00:27:40.152Z,60.18
2016-04-22T00:28:40.248Z,59.99
2016-04-22T00:29:40.266Z,59.9
2016-04-22T00:30:40.223Z,59.61
2016-04-22T00:31:40.210Z,60.09
2016-04-22T00:32:40.196Z,60.09
2016-04-22T00:33:40.184Z,59.99
2016-04-22T00:34:40.170Z,60.38
2016-04-22T00:35:40.158Z,61.04
2016-04-22T00:36:40.146Z,59.99
2016-04-22T00:37:40.133Z,60.85
2016-04-22T00:38:40.105Z,60.94
2016-04-22T00:39:40.107Z,60.94
2016-04-22T00:40:40.079Z,60.75
2016-04-22T00:41:40.066Z,61.52
2016-04-22T00:42:40.068Z,60.94
2016-04-22T00:43:40.039Z,60.85
2016-04-22T00:44:40.027Z,60.75
2016-04-22T00:45:40.013Z,59.9
2016-04-22T00:46:40.001Z,60.66
2016-04-22T00:47:39.987Z,61.23
2016-04-22T00:48:39.975Z,60.94
2016-04-22T00:49:39.945Z,61.13
2016-04-22T00:50:39.934Z,61.71
2016-04-22T00:51:39.936Z,61.99
2016-04-22T00:52:39.907Z,61.42
2016-04-22T00:53:39.895Z,61.8
2016-04-22T00:54:39.882Z,61.32
2016-04-22T00:55:39.869Z,61.71
2016-04-22T00:56:39.855Z,61.52
2016-04-22T00:57:39.858Z,61.8
2016-04-22T00:58:39.830Z,61.13
2016-04-22T00:59:39.801Z,61.96
2016-04-22T01:00:39.803Z,61.8
2016-04-22T01:01:39.775Z,61.77
2016-04-22T01:02:39.762Z,61.77
2016-04-22T01:03:39.749Z,61.8
2016-04-22T01:04:39.736Z,61.8
2016-04-22T01:05:39.724Z,62.34
2016-04-22T01:06:39.710Z,62.34
2016-04-22T01:07:39.697Z,62.72
2016-04-22T01:08:39.685Z,62.81
2016-04-22T01:09:39.671Z,62.81
2016-04-22T01:10:39.643Z,62.53
2016-04-22T01:11:39.630Z,62.62
2016-04-22T01:12:39.649Z,62.62
2016-04-22T01:13:39.604Z,62.72
2016-04-22T01:14:39.591Z,62.62
2016-04-22T01:15:39.579Z,62.81
2016-04-22T01:16:39.565Z,63.29
2016-04-22T01:17:39.553Z,63.86
2016-04-22T01:18:39.540Z,63.01
2016-04-22T01:19:39.511Z,63.76
2016-04-22T01:20:39.498Z,63.29
2016-04-22T01:21:39.485Z,63.29
2016-04-22T01:22:39.488Z,63.39
2016-04-22T01:23:39.459Z,63.48
2016-04-22T01:24:39.447Z,64.05
2016-04-22T01:25:39.434Z,63.39
2016-04-22T01:26:39.405Z,63.76
2016-04-22T01:27:39.408Z,63.86
2016-04-22T01:28:39.379Z,63.76
2016-04-22T01:29:39.366Z,64.62
2016-04-22T01:30:39.353Z,63.95
2016-04-22T01:31:39.341Z,64.34
2016-04-22T01:32:39.327Z,63.86
2016-04-22T01:33:39.299Z,64.34
2016-04-22T01:34:39.286Z,63.76
2016-04-22T01:35:39.273Z,63.76
2016-04-22T01:36:39.260Z,64.43
2016-04-22T01:37:39.247Z,64.24
2016-04-22T01:38:39.235Z,64.81
2016-04-22T01:39:39.221Z,64.24
2016-04-22T01:40:39.208Z,64.53
2016-04-22T01:41:39.180Z,64.05
2016-04-22T01:42:39.199Z,64.53
2016-04-22T01:43:39.154Z,65
2016-04-22T01:44:39.157Z,64.72
2016-04-22T01:45:39.128Z,64.34
2016-04-22T01:46:39.115Z,64.34
2016-04-22T01:47:39.102Z,64.34
2016-04-22T01:48:39.074Z,64.9
2016-04-22T01:49:39.060Z,64.24
2016-04-22T01:50:39.048Z,64.53
2016-04-22T01:51:39.035Z,64.9
2016-04-22T01:52:39.022Z,65
2016-04-22T01:53:39.009Z,64.53
2016-04-22T01:54:38.996Z,64.81
2016-04-22T01:55:38.984Z,64.34
2016-04-22T01:56:38.970Z,65.57
2016-04-22T01:57:38.942Z,65
2016-04-22T01:58:38.928Z,64.34
2016-04-22T01:59:38.916Z,65.76
2016-04-22T02:00:39.106Z,65.19
2016-04-22T02:01:38.906Z,64.62
2016-04-22T02:02:38.877Z,64.72
2016-04-22T02:03:38.880Z,64.72
2016-04-22T02:04:38.851Z,64.81
2016-04-22T02:05:38.822Z,65.09
2016-04-22T02:06:38.810Z,65.57
2016-04-22T02:07:38.813Z,65.38
2016-04-22T02:08:38.784Z,65.67
2016-04-22T02:09:38.771Z,65.57
2016-04-22T02:10:38.961Z,65.57
2016-04-22T02:11:38.730Z,65.67
2016-04-22T02:12:38.732Z,66.52
2016-04-22T02:13:38.704Z,65.95
2016-04-22T02:14:38.691Z,66.24
2016-04-22T02:15:38.677Z,65.47
2016-04-22T02:16:38.665Z,65.57
2016-04-22T02:17:38.652Z,65.57
2016-04-22T02:18:38.638Z,66.05
2016-04-22T02:19:38.626Z,65.38
2016-04-22T02:20:38.598Z,66.05
2016-04-22T02:21:38.601Z,66.71
2016-04-22T02:22:38.571Z,65.76
2016-04-22T02:23:38.559Z,66.05
2016-04-22T02:24:38.545Z,66.52
2016-04-22T02:25:38.548Z,66.52
2016-04-22T02:26:38.535Z,66.9
2016-04-22T02:27:38.492Z,67.09
2016-04-22T02:28:38.478Z,66.42
2016-04-22T02:29:38.465Z,66.42
2016-04-22T02:30:38.453Z,66.42
2016-04-22T02:31:38.439Z,66.8
2016-04-22T02:32:38.442Z,67.19
2016-04-22T02:33:38.413Z,66.24
2016-04-22T02:34:38.385Z,67.09
2016-04-22T02:35:38.372Z,66.61
2016-04-22T02:36:38.375Z,67
2016-04-22T02:37:38.361Z,66.52
2016-04-22T02:38:38.333Z,66.71
2016-04-22T02:39:38.320Z,67.28
2016-04-22T02:40:38.307Z,67.38
2016-04-22T02:41:38.294Z,68.04
2016-04-22T02:42:38.266Z,67.66
2016-04-22T02:43:38.253Z,67.85
2016-04-22T02:44:38.240Z,67.09
2016-04-22T02:45:38.227Z,67.47
2016-04-22T02:46:38.213Z,67.47
2016-04-22T02:47:38.201Z,68.04
2016-04-22T02:48:38.188Z,67.53
2016-04-22T02:49:38.159Z,68.19
2016-04-22T02:50:38.162Z,67.72
2016-04-22T02:51:38.134Z,68.67
2016-04-22T02:52:38.121Z,67.25
2016-04-22T02:53:38.123Z,67.44
2016-04-22T02:54:38.095Z,67.63
2016-04-22T02:55:38.066Z,68.1
2016-04-22T02:56:38.054Z,68.1
2016-04-22T02:57:38.057Z,68.19
2016-04-22T02:58:38.230Z,67.72
2016-04-22T02:59:38.062Z,68.39
2016-04-22T03:00:38.001Z,68.29
2016-04-22T03:01:38.004Z,68.96
2016-04-22T03:02:37.976Z,68.58
2016-04-22T03:03:37.963Z,68.67
2016-04-22T03:04:37.950Z,69.15
2016-04-22T03:05:37.936Z,69.62
2016-04-22T03:06:37.908Z,68.86
2016-04-22T03:07:37.895Z,68.92
2016-04-22T03:08:37.882Z,69.81
2016-04-22T03:09:37.854Z,69.71
2016-04-22T03:10:37.857Z,69.21
2016-04-22T03:11:37.828Z,69.4
2016-04-22T03:12:37.816Z,69.49
2016-04-22T03:13:37.802Z,70.1
2016-04-22T03:14:37.789Z,70.06
2016-04-22T03:15:37.761Z,69.68
2016-04-22T03:16:37.748Z,70.44
2016-04-22T03:17:37.735Z,70.35
2016-04-22T03:18:37.722Z,70.15
2016-04-22T03:19:37.709Z,70.82
2016-04-22T03:20:37.712Z,70.54
2016-04-22T03:21:37.683Z,70.82
2016-04-22T03:22:37.654Z,71.86
2016-04-22T03:23:37.642Z,71.2
2016-04-22T03:24:37.645Z,70.82
2016-04-22T03:25:37.616Z,71.39
2016-04-22T03:26:37.588Z,71.48
2016-04-22T03:27:37.574Z,71.58
2016-04-22T03:28:37.562Z,71.77
2016-04-22T03:29:37.548Z,72.53
2016-04-22T03:30:37.536Z,71.86
2016-04-22T03:31:37.523Z,72.15
2016-04-22T03:32:37.494Z,71.96
2016-04-22T03:33:37.481Z,72.34
2016-04-22T03:34:37.483Z,72.06
2016-04-22T03:35:37.455Z,72.25
2016-04-22T03:36:37.442Z,72.25
2016-04-22T03:37:37.413Z,71.86
2016-04-22T03:38:37.433Z,72.72
2016-04-22T03:39:37.388Z,72.34
2016-04-22T03:40:37.391Z,72.44
2016-04-22T03:41:37.362Z,72.25
2016-04-22T03:42:37.364Z,72.81
2016-04-22T03:43:37.164Z,72.63
2016-04-22T03:44:37.308Z,73.67
2016-04-22T03:45:37.310Z,73.48
2016-04-22T03:46:37.313Z,73.48
2016-04-22T03:47:37.253Z,73.48
2016-04-22T03:48:37.240Z,73.86
2016-04-22T03:49:37.227Z,73.67
2016-04-22T03:50:37.214Z,74.33
2016-04-22T03:51:37.201Z,74.33
2016-04-22T03:52:37.204Z,74.43
2016-04-22T03:53:37.160Z,74.62
2016-04-22T03:54:37.163Z,74.52
2016-04-22T03:55:37.135Z,74.52
2016-04-22T03:56:37.121Z,74.52
2016-04-22T03:57:37.109Z,74.62
2016-04-22T03:58:37.095Z,74.68
2016-04-22T03:59:37.067Z,74.58
2016-04-22T04:00:37.054Z,74.58
2016-04-22T04:01:37.025Z,75.19
2016-04-22T04:02:37.028Z,75.28
2016-04-22T04:03:36.999Z,74.77
2016-04-22T04:04:36.986Z,75.05
2016-04-22T04:05:36.973Z,74.87
2016-04-22T04:06:36.944Z,75.05
2016-04-22T04:07:36.948Z,74.87
2016-04-22T04:08:36.919Z,76.01
2016-04-22T04:09:36.906Z,76.2
2016-04-22T04:10:37.097Z,76.2
2016-04-22T04:11:36.880Z,76.86
2016-04-22T04:12:36.867Z,76.86
2016-04-22T04:13:36.838Z,76.39
2016-04-22T04:14:36.841Z,76.2
2016-04-22T04:15:36.813Z,76.95
2016-04-22T04:16:36.784Z,76.39
2016-04-22T04:17:36.771Z,76.76
2016-04-22T04:18:36.774Z,76.67
2016-04-22T04:19:36.760Z,77.52
2016-04-22T04:20:36.716Z,77.52
2016-04-22T04:21:36.704Z,77.9
2016-04-22T04:22:36.705Z,77.33
2016-04-22T04:23:36.731Z,77.52
2016-04-22T04:24:36.758Z,77.43
2016-04-22T04:25:36.768Z,78.19
2016-04-22T04:26:36.794Z,78.09
2016-04-22T04:27:36.809Z,77.81
2016-04-22T04:28:36.811Z,78.19
2016-04-22T04:29:36.798Z,77.9
2016-04-22T04:30:36.798Z,78
2016-04-22T04:31:36.799Z,78.28
2016-04-22T04:32:36.812Z,77.84
2016-04-22T04:33:36.789Z,78
2016-04-22T04:34:36.766Z,78.09
2016-04-22T04:35:36.757Z,77.81
2016-04-22T04:36:36.751Z,77.33
2016-04-22T04:37:36.740Z,77.24
2016-04-22T04:38:36.573Z,78.03
2016-04-22T04:39:36.703Z,77.56
2016-04-22T04:40:36.691Z,77.94
2016-04-22T04:41:36.681Z,77.75
2016-04-22T04:42:36.669Z,78.23
2016-04-22T04:43:36.516Z,78.03
2016-04-22T04:44:36.628Z,77.94
2016-04-22T04:45:36.616Z,78.03
2016-04-22T04:46:36.603Z,78.13
2016-04-22T04:47:36.590Z,77.66
2016-04-22T04:48:36.579Z,77.66
2016-04-22T04:49:36.551Z,78.03
2016-04-22T04:50:36.538Z,78.03
2016-04-22T04:51:36.525Z,77.66
2016-04-22T04:52:36.513Z,77.66
2016-04-22T04:53:36.500Z,77.84
2016-04-22T04:54:36.471Z,78.42
2016-04-22T04:55:36.458Z,77.84
2016-04-22T04:56:36.445Z,77.37
2016-04-22T04:57:36.432Z,77.28
2016-04-22T04:58:36.419Z,77.28
2016-04-22T04:59:36.390Z,77.28
2016-04-22T05:00:36.377Z,77.66
2016-04-22T05:01:36.365Z,77.28
2016-04-22T05:02:36.351Z,77.66
2016-04-22T05:03:36.339Z,77.66
2016-04-22T05:04:36.310Z,76.71
2016-04-22T05:05:36.298Z,77.66
2016-04-22T05:06:36.285Z,77.47
2016-04-22T05:07:36.271Z,77.37
2016-04-22T05:08:36.259Z,77.28
2016-04-22T05:09:36.231Z,77.18
2016-04-22T05:10:36.217Z,76.61
2016-04-22T05:11:36.205Z,76.8
2016-04-22T05:12:36.192Z,76.52
2016-04-22T05:13:36.195Z,76.23
2016-04-22T05:14:36.166Z,77.56
2016-04-22T05:15:36.138Z,77.09
2016-04-22T05:16:36.125Z,76.8
2016-04-22T05:17:36.112Z,76.99
2016-04-22T05:18:36.099Z,76.32
2016-04-22T05:19:36.087Z,76.32
2016-04-22T05:20:36.057Z,76.9
2016-04-22T05:21:36.045Z,76.37
2016-04-22T05:22:36.048Z,76.65
2016-04-22T05:23:36.019Z,76.37
2016-04-22T05:24:35.990Z,76.56
2016-04-22T05:25:35.977Z,76.56
2016-04-22T05:26:35.964Z,76.65
2016-04-22T05:27:35.951Z,77.12
2016-04-22T05:28:35.939Z,76.18
2016-04-22T05:29:35.910Z,75.7
2016-04-22T05:30:35.897Z,76.27
2016-04-22T05:31:35.916Z,75.79
2016-04-22T05:32:35.871Z,75.89
2016-04-22T05:33:35.858Z,75.79
2016-04-22T05:34:35.845Z,75.89
2016-04-22T05:35:35.832Z,75.99
2016-04-22T05:36:35.819Z,75.89
2016-04-22T05:37:35.791Z,75.32
2016-04-22T05:38:35.778Z,75.04
2016-04-22T05:39:35.766Z,74.47
2016-04-22T05:40:35.751Z,75.13
2016-04-22T05:41:35.739Z,74.85
2016-04-22T05:42:35.726Z,74.75
2016-04-22T05:43:35.698Z,74.56
2016-04-22T05:44:35.685Z,74.41
2016-04-22T05:45:35.671Z,73.8
2016-04-22T05:46:35.659Z,74.69
2016-04-22T05:47:35.646Z,74.79
2016-04-22T05:48:35.632Z,74.88
2016-04-22T05:49:35.620Z,75.07
2016-04-22T05:50:35.591Z,74.41
2016-04-22T05:51:35.578Z,74.03
2016-04-22T05:52:35.565Z,74.12
2016-04-22T05:53:35.552Z,74.6
2016-04-22T05:54:35.586Z,73.84
2016-04-22T05:55:35.526Z,74.12
2016-04-22T05:56:35.514Z,74.22
2016-04-22T05:57:35.485Z,74.03
2016-04-22T05:58:35.473Z,73.84
2016-04-22T05:59:35.475Z,73.74
2016-04-22T06:00:35.447Z,74.88
2016-04-22T06:01:35.433Z,74.79
2016-04-22T06:02:35.420Z,74.79
2016-04-22T06:03:35.408Z,73.65
2016-04-22T06:04:34.645Z,72.99
2016-04-22T06:05:35.382Z,72.99
2016-04-22T06:06:35.369Z,72.99
2016-04-22T06:07:35.341Z,73.93
2016-04-22T06:08:35.328Z,73.27
2016-04-22T06:09:35.313Z,73.65
2016-04-22T06:10:35.301Z,73.74
2016-04-22T06:11:35.288Z,74.22
2016-04-22T06:12:35.276Z,74.03
2016-04-22T06:13:35.262Z,73.65
2016-04-22T06:14:35.250Z,73.55
2016-04-22T06:15:35.236Z,72.99
2016-04-22T06:16:35.223Z,72.99
2016-04-22T06:17:35.195Z,73.74
2016-04-22T06:18:35.229Z,72.6
2016-04-22T06:19:35.169Z,72.89
2016-04-22T06:20:35.156Z,72.6
2016-04-22T06:21:35.143Z,72.89
2016-04-22T06:22:35.130Z,72.79
2016-04-22T06:23:35.117Z,72.13
2016-04-22T06:24:35.120Z,72.22
2016-04-22T06:25:35.092Z,72.03
2016-04-22T06:26:35.079Z,71.66
2016-04-22T06:27:35.050Z,71.75
2016-04-22T06:28:35.053Z,71.84
2016-04-22T06:29:35.024Z,72.13
2016-04-22T06:30:35.012Z,72.51
2016-04-22T06:31:34.998Z,72.32
2016-04-22T06:32:35.001Z,72.51
2016-04-22T06:33:34.973Z,72.22
2016-04-22T06:34:34.960Z,72.03
2016-04-22T06:35:34.947Z,72.03
2016-04-22T06:36:34.919Z,71.66
2016-04-22T06:37:37.155Z,71.56
2016-04-22T06:38:34.892Z,72.13
2016-04-22T06:39:34.879Z,72.22
2016-04-22T06:40:34.866Z,71.66
2016-04-22T06:41:34.854Z,72.03
2016-04-22T06:42:36.356Z,71.88
2016-04-22T06:43:34.827Z,71.97
2016-04-22T06:44:34.815Z,71.12
2016-04-22T06:45:34.802Z,71.31
2016-04-22T06:46:34.788Z,70.74
2016-04-22T06:47:34.666Z,71.02
2016-04-22T06:48:34.748Z,70.36
2016-04-22T06:49:34.782Z,70.17
2016-04-22T06:50:34.737Z,71.31
2016-04-22T06:51:34.724Z,71.31
2016-04-22T06:52:35.789Z,71.12
2016-04-22T06:53:34.683Z,71.31
2016-04-22T06:54:34.684Z,71.97
2016-04-22T06:55:34.766Z,72.55
2016-04-22T06:56:34.644Z,71.88
2016-04-22T06:57:35.568Z,71.69
2016-04-22T06:58:34.618Z,71.12
2016-04-22T06:59:34.606Z,72.07
2016-04-22T07:00:34.576Z,72.16
2016-04-22T07:01:34.563Z,71.97
2016-04-22T07:02:37.300Z,71.22
2016-04-22T07:03:34.538Z,71.5
2016-04-22T07:04:34.541Z,71.59
2016-04-22T07:05:34.511Z,72.16
2016-04-22T07:06:34.499Z,72.45
2016-04-22T07:07:35.424Z,71.69
2016-04-22T07:08:34.488Z,72.16
2016-04-22T07:09:34.460Z,72.26
2016-04-22T07:10:34.447Z,71.31
2016-04-22T07:11:34.419Z,71.02
2016-04-22T07:12:34.766Z,70.93
2016-04-22T07:13:34.393Z,70.17
2016-04-22T07:14:34.396Z,70.26
2016-04-22T07:15:34.382Z,70.1
2016-04-22T07:16:34.369Z,70.68
2016-04-22T07:17:37.497Z,70.01
2016-04-22T07:18:34.328Z,70.3
2016-04-22T07:19:34.315Z,69.92
2016-04-22T07:20:34.302Z,69.54
2016-04-22T07:21:34.289Z,69.06
2016-04-22T07:22:35.729Z,70.39
2016-04-22T07:23:34.263Z,70.77
2016-04-22T07:24:34.234Z,71.06
2016-04-22T07:25:34.456Z,69.35
2016-04-22T07:26:34.225Z,69.15
2016-04-22T07:27:36.414Z,68.96
2016-04-22T07:28:34.198Z,68.01
2016-04-22T07:29:34.186Z,67.16
2016-04-22T07:30:34.157Z,67.35
2016-04-22T07:31:34.145Z,68.01
2016-04-22T07:32:34.287Z,68.11
2016-04-22T07:33:34.133Z,67.76
2016-04-22T07:34:34.106Z,68.05
2016-04-22T07:35:34.092Z,67.1
2016-04-22T07:36:34.080Z,65.48
2016-04-22T07:37:34.786Z,66.33
2016-04-22T07:38:34.067Z,66.72
2016-04-22T07:39:34.053Z,67
2016-04-22T07:40:34.025Z,66.05
2016-04-22T07:41:34.013Z,66.33
2016-04-22T07:42:35.643Z,65.95
2016-04-22T07:43:33.971Z,65.38
2016-04-22T07:44:33.974Z,64.9
2016-04-22T07:45:33.960Z,65.67
2016-04-22T07:46:33.947Z,64.9
2016-04-22T07:47:34.825Z,65.38
2016-04-22T07:48:33.952Z,65.67
2016-04-22T07:49:33.909Z,65.67
2016-04-22T07:50:33.896Z,66.24
2016-04-22T07:51:33.882Z,66.33
2016-04-22T07:52:35.323Z,65.89
2016-04-22T07:53:33.857Z,65.51
2016-04-22T07:54:33.843Z,65.32
2016-04-22T07:55:33.862Z,65.8
2016-04-22T07:56:33.818Z,65.7
2016-04-22T07:57:33.806Z,64.37
2016-04-22T07:58:33.793Z,64.56
2016-04-22T07:59:33.780Z,63.99
2016-04-22T08:00:33.767Z,63.89
2016-04-22T08:01:33.754Z,64.65
2016-04-22T08:02:34.897Z,63.99
2016-04-22T08:03:33.727Z,64.28
2016-04-22T08:04:33.715Z,63.6
2016-04-22T08:05:33.703Z,63.83
2016-04-22T08:06:33.688Z,62.97
2016-04-22T08:07:33.754Z,62.68
2016-04-22T08:08:33.663Z,62.68
2016-04-22T08:09:33.650Z,60.69
2016-04-22T08:10:33.653Z,61.35
2016-04-22T08:11:33.827Z,61.45
2016-04-22T08:12:33.642Z,59.92
2016-04-22T08:13:33.614Z,59.16
2016-04-22T08:14:33.601Z,58.33
2016-04-22T08:15:33.588Z,56.71
2016-04-22T08:16:33.575Z,57
2016-04-22T08:17:33.609Z,56.04
2016-04-22T08:18:33.549Z,54.17
2016-04-22T08:19:33.552Z,52.22
2016-04-22T08:20:33.539Z,50.31
2016-04-22T08:21:33.526Z,49.85
2016-04-22T08:22:33.935Z,47.78
2016-04-22T08:23:33.516Z,46.63
2016-04-22T08:24:33.503Z,45.22
2016-04-22T08:25:33.490Z,43.63
2016-04-22T08:26:33.477Z,42.13
2016-04-22T08:27:33.495Z,40.98
2016-04-22T08:28:33.670Z,41.57
2016-04-22T08:29:33.470Z,40.23
2016-04-22T08:30:32.706Z,39.39
2016-04-22T08:31:33.443Z,39.48
2016-04-22T08:32:33.540Z,38.45
2016-04-22T08:33:33.433Z,39.2
2016-04-22T08:34:33.451Z,38.07
2016-04-22T08:35:34.251Z,37.85
2016-04-22T08:36:33.425Z,36.84
2016-04-22T08:37:33.289Z,36.09
2016-04-22T08:38:33.431Z,35.63
2016-04-22T08:39:33.418Z,33.82
2016-04-22T08:40:33.421Z,33.8
2016-04-22T08:41:33.408Z,32.49
2016-04-22T08:42:33.317Z,31.82
2016-04-22T08:43:33.414Z,32.49
2016-04-22T08:44:33.400Z,34.76
2016-04-22T08:45:33.231Z,35.97
2016-04-22T08:46:33.391Z,36.82
2016-04-22T08:47:33.393Z,36.44
2016-04-22T08:48:33.380Z,36.63
2016-04-22T08:49:33.383Z,36.46
2016-04-22T08:50:33.385Z,34.07
2016-04-22T08:51:33.388Z,35.71
2016-04-22T08:52:33.421Z,36.26
2016-04-22T08:53:33.410Z,36.36
2016-04-22T08:54:33.380Z,36.76
2016-04-22T08:55:33.368Z,36.78
2016-04-22T08:56:33.371Z,35.53
2016-04-22T08:57:33.217Z,36.65
2016-04-22T08:58:33.375Z,39.12
2016-04-22T08:59:33.393Z,39.87
2016-04-22T09:00:33.366Z,41.19
2016-04-22T09:01:33.353Z,41.55
2016-04-22T09:02:33.277Z,40.41
2016-04-22T09:03:33.358Z,41.82
2016-04-22T09:04:33.345Z,43.83
2016-04-22T09:05:33.364Z,43.26
2016-04-22T09:06:33.334Z,42.9
2016-04-22T09:07:33.790Z,42.68
2016-04-22T09:08:33.340Z,43.35
2016-04-22T09:09:33.328Z,43.83
2016-04-22T09:10:33.330Z,44.48
2016-04-22T09:11:33.333Z,44.19
2016-04-22T09:12:33.257Z,44.76
2016-04-22T09:13:33.322Z,44.95
2016-04-22T09:14:33.199Z,45.7
2016-04-22T09:15:33.311Z,46.17
2016-04-22T09:16:33.315Z,45.98
2016-04-22T09:17:33.302Z,46.08
2016-04-22T09:18:33.305Z,45.7
2016-04-22T09:19:33.151Z,45.98
2016-04-22T09:20:33.294Z,46.75
2016-04-22T09:21:33.297Z,48.07
2016-04-22T09:22:33.284Z,47.49
2016-04-22T09:23:33.278Z,47.87
2016-04-22T09:24:33.281Z,46.72
2016-04-22T09:25:33.267Z,47.89
2016-04-22T09:26:33.270Z,45.31
2016-04-22T09:27:33.476Z,44.74
2016-04-22T09:28:33.260Z,42.97
2016-04-22T09:29:33.264Z,44.12
2016-04-22T09:30:33.250Z,44.19
2016-04-22T09:31:33.236Z,43.62
2016-04-22T09:32:33.240Z,45.43
2016-04-22T09:33:33.242Z,42.18
2016-04-22T09:34:33.229Z,41.94
2016-04-22T09:35:33.233Z,40.31
2016-04-22T09:36:33.220Z,41.77
2016-04-22T09:37:33.222Z,39.77
2016-04-22T09:38:33.210Z,39.01
2016-04-22T09:39:33.212Z,38.45
2016-04-22T09:40:33.215Z,39.87
2016-04-22T09:41:33.202Z,39.6
2016-04-22T09:42:33.205Z,38.83
2016-04-22T09:43:33.192Z,39.1
2016-04-22T09:44:33.194Z,37.95
2016-04-22T09:45:33.197Z,38.53
2016-04-22T09:46:33.185Z,39.58
2016-04-22T09:47:33.188Z,40.04
2016-04-22T09:48:33.191Z,40.12
2016-04-22T09:49:33.177Z,41.36
2016-04-22T09:50:33.883Z,42.01
2016-04-22T09:51:33.166Z,42.08
2016-04-22T09:52:33.169Z,42.94
2016-04-22T09:53:33.156Z,41.63
2016-04-22T09:54:33.190Z,41.44
2016-04-22T09:55:33.177Z,41.72
2016-04-22T09:56:33.149Z,41.82
2016-04-22T09:57:33.152Z,41.89
2016-04-22T09:58:33.138Z,42.76
2016-04-22T09:59:33.141Z,42.01
2016-04-22T10:00:33.143Z,41.63
2016-04-22T10:01:33.131Z,40.59
2016-04-22T10:02:33.134Z,41.63
2016-04-22T10:03:33.120Z,41.61
2016-04-22T10:04:33.124Z,40.77
2016-04-22T10:05:33.110Z,39.52
2016-04-22T10:06:33.114Z,39.9
2016-04-22T10:07:33.116Z,40.86
2016-04-22T10:13:40.055Z,42.8
2016-04-22T10:14:40.058Z,42.4
2016-04-22T10:15:40.046Z,41.44
2016-04-22T10:16:40.049Z,41.91
2016-04-22T10:17:40.035Z,40.61
2016-04-22T10:18:40.038Z,41.28
2016-04-22T10:19:40.026Z,41.07
2016-04-22T10:20:40.029Z,41.74
2016-04-22T10:21:40.031Z,42.58
2016-04-22T10:22:40.018Z,41.91
2016-04-22T10:23:40.020Z,41.8
2016-04-22T10:24:40.007Z,42.11
2016-04-22T10:25:40.010Z,41.94
2016-04-22T10:26:40.012Z,39.75
2016-04-22T10:27:40.000Z,36.69
2016-04-22T10:28:40.003Z,35.84
2016-04-22T10:29:39.990Z,35.02
2016-04-22T10:30:40.008Z,35.3
2016-04-22T10:31:39.995Z,33.4
2016-04-22T10:32:39.982Z,32.93
2016-04-22T10:33:40.001Z,32.38
2016-04-22T10:34:39.988Z,32.49
2016-04-22T10:35:39.990Z,31.26
2016-04-22T10:36:39.977Z,31.05
2016-04-22T10:37:39.980Z,32.55
2016-04-22T10:38:39.983Z,31.69
2016-04-22T10:39:39.986Z,31.23
2016-04-22T10:40:39.988Z,31.34
2016-04-22T10:41:39.975Z,31.05
2016-04-22T10:42:39.978Z,30.55
2016-04-22T10:43:39.981Z,31.41
2016-04-22T10:44:39.983Z,33.21
2016-04-22T10:45:39.971Z,31.88
2016-04-22T10:46:39.973Z,33.44
2016-04-22T10:47:39.976Z,32.17
2016-04-22T10:48:39.979Z,33.5
2016-04-22T10:49:39.996Z,33.19
2016-04-22T10:50:39.984Z,35.4
2016-04-22T10:51:39.970Z,35.88
2016-04-22T10:52:39.973Z,35
2016-04-22T10:53:39.976Z,34.63
2016-04-22T10:54:39.979Z,35.02
2016-04-22T10:55:39.981Z,32.92
2016-04-22T10:56:39.968Z,31.88
2016-04-22T10:57:39.971Z,31.13
2016-04-22T10:58:39.973Z,31.23
2016-04-22T10:59:39.961Z,29.22
2016-04-22T11:00:39.964Z,30.26
2016-04-22T11:01:39.967Z,28.55
2016-04-22T11:02:39.969Z,27.98
2016-04-22T11:03:39.972Z,27.71
2016-04-22T11:04:39.974Z,30.04
2016-04-22T11:05:39.962Z,29.84
2016-04-22T11:06:39.965Z,29.57
2016-04-22T11:07:39.967Z,27.85
2016-04-22T11:08:39.969Z,28.14
2016-04-22T11:09:39.972Z,27.94
2016-04-22T11:10:39.991Z,26.21
2016-04-22T11:11:39.977Z,26.22
2016-04-22T11:12:39.980Z,24.3
2016-04-22T11:13:39.983Z,25.27
2016-04-22T11:14:39.986Z,24.69
2016-04-22T11:15:39.988Z,26.22
2016-04-22T11:16:39.991Z,26.04
2016-04-22T11:17:39.993Z,25.96
2016-04-22T11:18:39.996Z,26.25
2016-04-22T11:19:39.999Z,24.61
2016-04-22T11:20:40.002Z,25.38
2016-04-22T11:21:40.013Z,24.98
2016-04-22T11:22:39.842Z,26.21
2016-04-22T11:23:40.017Z,26.87
2016-04-22T11:24:40.020Z,27.72
2016-04-22T11:25:40.022Z,25.98
2016-04-22T11:26:40.025Z,27.61
2016-04-22T11:27:40.012Z,30.02
2016-04-22T11:28:40.031Z,28.13
2016-04-22T11:29:40.017Z,26.78
2016-04-22T11:30:40.036Z,26.76
2016-04-22T11:31:40.039Z,28.66
2016-04-22T11:32:40.026Z,28.64
2016-04-22T11:33:40.059Z,30.85
2016-04-22T11:34:40.061Z,29.32
2016-04-22T11:35:40.050Z,30.65
2016-04-22T11:36:40.052Z,29.9
2016-04-22T11:37:40.054Z,31.05
2016-04-22T11:38:40.041Z,30.07
2016-04-22T11:39:40.044Z,30.36
2016-04-22T11:40:40.047Z,30.66
2016-04-22T11:41:40.049Z,30.85
2016-04-22T11:42:40.037Z,31.24
2016-04-22T11:43:40.055Z,28.18
2016-04-22T11:44:40.058Z,28.55
2016-04-22T11:45:40.045Z,28.45
2016-04-22T11:46:39.890Z,28.92
2016-04-22T11:47:40.050Z,27.78
2016-04-22T11:48:40.053Z,28.56
2016-04-22T11:49:40.243Z,27.23
2016-04-22T11:50:40.042Z,28.59
2016-04-22T11:51:40.061Z,24.55
2016-04-22T11:52:40.064Z,27.92
2016-04-22T11:53:40.051Z,26.18
2016-04-22T11:54:40.053Z,25.12
2016-04-22T11:55:40.056Z,28.3
2016-04-22T11:56:40.058Z,27.81
2016-04-22T11:57:40.062Z,27.34
2016-04-22T11:58:40.064Z,28.49
2016-04-22T11:59:40.067Z,27.72
2016-04-22T12:00:40.070Z,28.02
2016-04-22T12:01:40.056Z,26.37
2016-04-22T12:02:40.075Z,28.86
2016-04-22T12:03:40.078Z,28.45
2016-04-22T12:04:40.080Z,29.51
2016-04-22T12:05:40.067Z,30.07
2016-04-22T12:06:40.086Z,30.05
2016-04-22T12:07:40.072Z,31.38
2016-04-22T12:08:40.075Z,31.08
2016-04-22T12:09:40.078Z,31.45
2016-04-22T12:10:40.080Z,34.92
2016-04-22T12:11:40.286Z,31.2
2016-04-22T12:12:40.085Z,29.58
2016-04-22T12:13:40.088Z,29.4
2016-04-22T12:14:40.076Z,29.22
2016-04-22T12:15:40.110Z,30.28
2016-04-22T12:16:40.113Z,30.55
2016-04-22T12:17:40.085Z,28.63
2016-04-22T12:18:40.102Z,28.93
2016-04-22T12:19:41.075Z,26.53
2016-04-22T12:20:40.078Z,27.4
2016-04-22T12:21:40.112Z,27.3
2016-04-22T12:22:40.084Z,27.59
2016-04-22T12:23:40.070Z,26.24
2016-04-22T12:24:40.073Z,27.02
2016-04-22T12:25:40.075Z,26.75
2016-04-22T12:26:40.078Z,26.36
2016-04-22T12:27:40.081Z,27.72
2016-04-22T12:28:40.100Z,27.53
2016-04-22T12:29:40.087Z,26.98
2016-04-22T12:30:40.121Z,24.29
2016-04-22T12:31:40.124Z,24.11
2016-04-22T12:32:40.094Z,22.87
2016-04-22T12:33:40.097Z,24.13
2016-04-22T12:34:40.085Z,23.36
2016-04-22T12:35:40.103Z,22.41
2016-04-22T12:36:40.106Z,22.52
2016-04-22T12:37:40.093Z,19.23
2016-04-22T12:38:40.096Z,22.89
2016-04-22T12:39:40.114Z,21.36
2016-04-22T12:40:40.163Z,21.45
2016-04-22T12:41:40.119Z,19.73
2016-04-22T12:42:40.106Z,20.2
2016-04-22T12:43:40.124Z,20.59
2016-04-22T12:44:40.127Z,20.87
2016-04-22T12:45:40.114Z,20.68
2016-04-22T12:46:40.117Z,22.02
2016-04-22T12:47:40.166Z,20.77
2016-04-22T12:48:40.122Z,19.03
2016-04-22T12:49:40.125Z,21.62
2016-04-22T12:50:40.143Z,19.68
2016-04-22T12:51:40.161Z,20.08
2016-04-22T12:52:40.165Z,20.86
2016-04-22T12:53:40.151Z,20.96
2016-04-22T12:54:39.419Z,20.86
2016-04-22T12:55:40.156Z,20.28
2016-04-22T12:56:40.159Z,18.85
2016-04-22T12:57:40.194Z,17.78
2016-04-22T12:58:40.165Z,19.73
2016-04-22T12:59:40.184Z,19.53
2016-04-22T13:00:40.186Z,17.69